Temp: 5.9°C   Baro: 1032.5mb
  Wind: 2.0mph   Dir: SE (129°)
  Rain: 0.0mm (0.0mm/hr)
  Solar: 0W/m2  Hum: 80%
 
Bath Spa Weather Historical Data
Daily Summary for January 14, 2020 Units:  Both    English   Metric
Next Day »
Daily Weekly Monthly Yearly Custom
  High: Low: Average:
Temperature: 57.4 °F /  14.1 °C 44.4 °F /  6.9 °C 50 °F /  10 °C
Dew Point: 53.8 °F /  12.1 °C 39.4 °F /  4.1 °C 47.1 °F /  8.4 °C
Humidity: 95% 80% 90%
Wind Speed: 25.1mph /  40.4km/h - 7.3mph /  11.8km/h
Wind Gust: 34mph /  54.7km/h - -
Wind direction- - SW
Pressure: 29.5 in /  999.2 hPa 29.2 in /  988.7 hPa -
Precipitation: 0.06 in /  1.5 mm    
Historical Graphs
 
 
Tabular Data for January 14, 2020
Time Temperature Dew Point Pressure Wind direction Wind Speed Wind Gust Humidity Rainfall Rate (Hourly) solar
00:01 45.5 °F /  7.5 °C 39.7 °F /  4.3 °C 29.4in /  996.5hPa West 6mph /  9.7km/h 9mph /  14.5km/h 80% 0in /  0.0mm 0.00 W/m2
00:05 45.5 °F /  7.5 °C 39.7 °F /  4.3 °C 29.4in /  996.5hPa WSW 6.9mph /  11.1km/h 8mph /  12.9km/h 80% 0in /  0.0mm 0.00 W/m2
00:10 45.5 °F /  7.5 °C 39.7 °F /  4.3 °C 29.4in /  996.2hPa WSW 2.9mph /  4.7km/h 6mph /  9.7km/h 80% 0in /  0.0mm 0.00 W/m2
00:15 45.3 °F /  7.4 °C 39.6 °F /  4.2 °C 29.4in /  996.2hPa SW 2mph /  3.2km/h 3mph /  4.8km/h 80% 0in /  0.0mm 0.00 W/m2
00:20 45.1 °F /  7.3 °C 39.4 °F /  4.1 °C 29.4in /  996.2hPa SSW 2.9mph /  4.7km/h 4mph /  6.4km/h 80% 0in /  0.0mm 0.00 W/m2
00:25 45.3 °F /  7.4 °C 39.6 °F /  4.2 °C 29.4in /  996.2hPa SW 4mph /  6.4km/h 6mph /  9.7km/h 80% 0in /  0.0mm 0.00 W/m2
00:30 45.5 °F /  7.5 °C 40.1 °F /  4.5 °C 29.4in /  996.2hPa SSW 4mph /  6.4km/h 7mph /  11.3km/h 81% 0in /  0.0mm 0.00 W/m2
00:35 45.3 °F /  7.4 °C 39.9 °F /  4.4 °C 29.4in /  996.2hPa SW 4.9mph /  7.9km/h 6mph /  9.7km/h 81% 0in /  0.0mm 0.00 W/m2
00:40 45.5 °F /  7.5 °C 40.1 °F /  4.5 °C 29.4in /  996.2hPa WSW 2.9mph /  4.7km/h 3mph /  4.8km/h 81% 0in /  0.0mm 0.00 W/m2
00:45 45.3 °F /  7.4 °C 39.9 °F /  4.4 °C 29.4in /  996.2hPa SW 2mph /  3.2km/h 7mph /  11.3km/h 81% 0in /  0.0mm 0.00 W/m2
00:50 45.3 °F /  7.4 °C 39.9 °F /  4.4 °C 29.4in /  996.2hPa SW 4.9mph /  7.9km/h 5mph /  8.0km/h 81% 0in /  0.0mm 0.00 W/m2
00:55 45.5 °F /  7.5 °C 40.1 °F /  4.5 °C 29.4in /  996.2hPa SW 4.9mph /  7.9km/h 6mph /  9.7km/h 81% 0in /  0.0mm 0.00 W/m2
01:00 45.7 °F /  7.6 °C 40.5 °F /  4.7 °C 29.4in /  996.2hPa WSW 4mph /  6.4km/h 6mph /  9.7km/h 82% 0in /  0.0mm 0.00 W/m2
01:05 45.7 °F /  7.6 °C 40.5 °F /  4.7 °C 29.4in /  996.5hPa WSW 4mph /  6.4km/h 5mph /  8.0km/h 82% 0in /  0.0mm 0.00 W/m2
01:10 45.9 °F /  7.7 °C 40.6 °F /  4.8 °C 29.4in /  996.5hPa Calm   8mph /  12.9km/h 82% 0in /  0.0mm 0.00 W/m2
01:15 45.9 °F /  7.7 °C 40.6 °F /  4.8 °C 29.4in /  996.5hPa SSW 2mph /  3.2km/h 5mph /  8.0km/h 82% 0in /  0.0mm 0.00 W/m2
01:20 45.9 °F /  7.7 °C 40.6 °F /  4.8 °C 29.4in /  996.5hPa Calm   7mph /  11.3km/h 82% 0in /  0.0mm 0.00 W/m2
01:25 45.9 °F /  7.7 °C 40.6 °F /  4.8 °C 29.4in /  996.5hPa West 2mph /  3.2km/h 3mph /  4.8km/h 82% 0in /  0.0mm 0.00 W/m2
01:31 46 °F /  7.8 °C 40.8 °F /  4.9 °C 29.4in /  996.2hPa SW 2mph /  3.2km/h 7mph /  11.3km/h 82% 0in /  0.0mm 0.00 W/m2
01:35 46.2 °F /  7.9 °C 41 °F /  5.0 °C 29.4in /  996.2hPa SW 2.9mph /  4.7km/h 5mph /  8.0km/h 82% 0in /  0.0mm 0.00 W/m2
01:40 46.4 °F /  8.0 °C 40.8 °F /  4.9 °C 29.4in /  996.2hPa SSW 4.9mph /  7.9km/h 9mph /  14.5km/h 81% 0in /  0.0mm 0.00 W/m2
01:45 46.6 °F /  8.1 °C 41 °F /  5.0 °C 29.4in /  996.2hPa SW 6mph /  9.7km/h 9mph /  14.5km/h 81% 0in /  0.0mm 0.00 W/m2
01:50 46.6 °F /  8.1 °C 40.8 °F /  4.9 °C 29.4in /  996.2hPa SW 6.9mph /  11.1km/h 9mph /  14.5km/h 80% 0in /  0.0mm 0.00 W/m2
01:55 46.4 °F /  8.0 °C 40.8 °F /  4.9 °C 29.4in /  996.2hPa SSW 4mph /  6.4km/h 6mph /  9.7km/h 81% 0in /  0.0mm 0.00 W/m2
02:00 46.4 °F /  8.0 °C 41.2 °F /  5.1 °C 29.4in /  995.8hPa SSW 4.9mph /  7.9km/h 9mph /  14.5km/h 82% 0in /  0.0mm 0.00 W/m2
02:05 46.6 °F /  8.1 °C 41.7 °F /  5.4 °C 29.4in /  995.8hPa SSW 2.9mph /  4.7km/h 8mph /  12.9km/h 83% 0in /  0.0mm 0.00 W/m2
02:10 46.4 °F /  8.0 °C 41.5 °F /  5.3 °C 29.4in /  996.2hPa SSW 4.9mph /  7.9km/h 9mph /  14.5km/h 83% 0in /  0.0mm 0.00 W/m2
02:15 46.6 °F /  8.1 °C 41.7 °F /  5.4 °C 29.4in /  996.2hPa SW 6.9mph /  11.1km/h 7mph /  11.3km/h 83% 0in /  0.0mm 0.00 W/m2
02:20 46.8 °F /  8.2 °C 41.9 °F /  5.5 °C 29.4in /  995.8hPa WSW 4.9mph /  7.9km/h 10mph /  16.1km/h 83% 0in /  0.0mm 0.00 W/m2
02:25 46.8 °F /  8.2 °C 41.9 °F /  5.5 °C 29.4in /  995.8hPa South 4.9mph /  7.9km/h 10mph /  16.1km/h 83% 0in /  0.0mm 0.00 W/m2
02:30 46.8 °F /  8.2 °C 41.9 °F /  5.5 °C 29.4in /  995.8hPa South 6mph /  9.7km/h 11mph /  17.7km/h 83% 0in /  0.0mm 0.00 W/m2
02:35 46.9 °F /  8.3 °C 42.1 °F /  5.6 °C 29.4in /  995.8hPa WSW 11mph /  17.7km/h 15mph /  24.1km/h 83% 0in /  0.0mm 0.00 W/m2
02:40 46.9 °F /  8.3 °C 42.1 °F /  5.6 °C 29.4in /  995.8hPa SSE 4mph /  6.4km/h 13mph /  20.9km/h 83% 0in /  0.0mm 0.00 W/m2
02:45 47.1 °F /  8.4 °C 42.3 °F /  5.7 °C 29.4in /  995.8hPa SE 6.9mph /  11.1km/h 11mph /  17.7km/h 83% 0in /  0.0mm 0.00 W/m2
02:50 47.1 °F /  8.4 °C 42.3 °F /  5.7 °C 29.4in /  996.2hPa SW 6mph /  9.7km/h 10mph /  16.1km/h 83% 0in /  0.0mm 0.00 W/m2
02:55 47.5 °F /  8.6 °C 42.6 °F /  5.9 °C 29.4in /  996.2hPa South 8.1mph /  13.0km/h 14mph /  22.5km/h 83% 0in /  0.0mm 0.00 W/m2
03:00 47.5 °F /  8.6 °C 42.8 °F /  6.0 °C 29.4in /  996.2hPa SSW 2.9mph /  4.7km/h 7mph /  11.3km/h 84% 0in /  0.0mm 0.00 W/m2
03:05 47.5 °F /  8.6 °C 42.8 °F /  6.0 °C 29.4in /  995.8hPa WSW 4mph /  6.4km/h 12mph /  19.3km/h 84% 0in /  0.0mm 0.00 W/m2
03:10 47.7 °F /  8.7 °C 43 °F /  6.1 °C 29.4in /  995.8hPa SW 8.9mph /  14.3km/h 9mph /  14.5km/h 84% 0in /  0.0mm 0.00 W/m2
03:15 47.7 °F /  8.7 °C 43 °F /  6.1 °C 29.4in /  995.8hPa SSW 6mph /  9.7km/h 10mph /  16.1km/h 84% 0in /  0.0mm 0.00 W/m2
03:20 48 °F /  8.9 °C 43.3 °F /  6.3 °C 29.4in /  995.8hPa SSW 11mph /  17.7km/h 14mph /  22.5km/h 84% 0in /  0.0mm 0.00 W/m2
03:25 48 °F /  8.9 °C 43.2 °F /  6.2 °C 29.4in /  995.8hPa SSE 6mph /  9.7km/h 10mph /  16.1km/h 83% 0in /  0.0mm 0.00 W/m2
03:30 48.2 °F /  9.0 °C 43.3 °F /  6.3 °C 29.4in /  995.8hPa SSE 4.9mph /  7.9km/h 15mph /  24.1km/h 83% 0in /  0.0mm 5.00 W/m2
03:35 48.4 °F /  9.1 °C 43.5 °F /  6.4 °C 29.4in /  995.5hPa South 0.9mph /  1.4km/h 11mph /  17.7km/h 83% 0in /  0.0mm 5.00 W/m2
03:40 48.4 °F /  9.1 °C 43.7 °F /  6.5 °C 29.4in /  995.5hPa SSW 4mph /  6.4km/h 8mph /  12.9km/h 84% 0in /  0.0mm 9.00 W/m2
03:45 48.4 °F /  9.1 °C 43.7 °F /  6.5 °C 29.4in /  995.5hPa South 4mph /  6.4km/h 12mph /  19.3km/h 84% 0in /  0.0mm 9.00 W/m2
03:50 48.2 °F /  9.0 °C 43.5 °F /  6.4 °C 29.4in /  995.5hPa SSW 6mph /  9.7km/h 12mph /  19.3km/h 84% 0in /  0.0mm 9.00 W/m2
03:55 48.4 °F /  9.1 °C 43.7 °F /  6.5 °C 29.4in /  995.5hPa South 10.1mph /  16.3km/h 14mph /  22.5km/h 84% 0in /  0.0mm 9.00 W/m2
04:01 48.6 °F /  9.2 °C 43.9 °F /  6.6 °C 29.4in /  995.1hPa SSW 4.9mph /  7.9km/h 8mph /  12.9km/h 84% 0in /  0.0mm 16.00 W/m2
04:05 48.6 °F /  9.2 °C 43.9 °F /  6.6 °C 29.4in /  995.1hPa South 2mph /  3.2km/h 14mph /  22.5km/h 84% 0in /  0.0mm 16.00 W/m2
04:10 48.6 °F /  9.2 °C 43.9 °F /  6.6 °C 29.4in /  995.1hPa South 4mph /  6.4km/h 10mph /  16.1km/h 84% 0in /  0.0mm 14.00 W/m2
04:15 48.7 °F /  9.3 °C 44.1 °F /  6.7 °C 29.4in /  995.1hPa South 4.9mph /  7.9km/h 19mph /  30.6km/h 84% 0in /  0.0mm 14.00 W/m2
04:20 48.9 °F /  9.4 °C 44.2 °F /  6.8 °C 29.4in /  994.8hPa SSW 2mph /  3.2km/h 9mph /  14.5km/h 84% 0in /  0.0mm 19.00 W/m2
04:25 49.3 °F /  9.6 °C 44.6 °F /  7.0 °C 29.4in /  994.8hPa SSW 6.9mph /  11.1km/h 21mph /  33.8km/h 84% 0in /  0.0mm 25.00 W/m2
04:30 49.3 °F /  9.6 °C 44.6 °F /  7.0 °C 29.4in /  994.5hPa South 8.1mph /  13.0km/h 16mph /  25.7km/h 84% 0in /  0.0mm 26.00 W/m2
04:35 49.3 °F /  9.6 °C 44.6 °F /  7.0 °C 29.4in /  994.1hPa SSE 4mph /  6.4km/h 14mph /  22.5km/h 84% 0in /  0.0mm 25.00 W/m2
04:40 49.3 °F /  9.6 °C 44.6 °F /  7.0 °C 29.4in /  994.1hPa South 6mph /  9.7km/h 12mph /  19.3km/h 84% 0in /  0.0mm 25.00 W/m2
04:45 49.3 °F /  9.6 °C 44.6 °F /  7.0 °C 29.4in /  994.5hPa SSE 2.9mph /  4.7km/h 17mph /  27.4km/h 84% 0in /  0.0mm 21.00 W/m2
04:50 49.3 °F /  9.6 °C 44.6 °F /  7.0 °C 29.4in /  994.1hPa SSE 6mph /  9.7km/h 19mph /  30.6km/h 84% 0in /  0.0mm 33.00 W/m2
04:55 49.5 °F /  9.7 °C 44.8 °F /  7.1 °C 29.4in /  994.1hPa South 12.1mph /  19.5km/h 12mph /  19.3km/h 84% 0in /  0.0mm 40.00 W/m2
05:00 49.5 °F /  9.7 °C 44.6 °F /  7.0 °C 29.4in /  994.1hPa SSW 6mph /  9.7km/h 18mph /  29.0km/h 83% 0in /  0.0mm 44.00 W/m2
05:05 49.6 °F /  9.8 °C 44.8 °F /  7.1 °C 29.4in /  993.8hPa South 6mph /  9.7km/h 14mph /  22.5km/h 83% 0in /  0.0mm 32.00 W/m2
05:10 49.6 °F /  9.8 °C 44.8 °F /  7.1 °C 29.3in /  993.5hPa SSE 4.9mph /  7.9km/h 11mph /  17.7km/h 83% 0in /  0.0mm 49.00 W/m2
05:15 49.6 °F /  9.8 °C 44.8 °F /  7.1 °C 29.3in /  993.5hPa SSE 6mph /  9.7km/h 17mph /  27.4km/h 83% 0in /  0.0mm 46.00 W/m2
05:20 49.5 °F /  9.7 °C 44.8 °F /  7.1 °C 29.3in /  993.5hPa South 6.9mph /  11.1km/h 14mph /  22.5km/h 84% 0in /  0.0mm 46.00 W/m2
05:25 49.5 °F /  9.7 °C 45.1 °F /  7.3 °C 29.3in /  993.1hPa South 8.9mph /  14.3km/h 15mph /  24.1km/h 85% 0in /  0.0mm 30.00 W/m2
05:30 49.3 °F /  9.6 °C 45 °F /  7.2 °C 29.3in /  992.8hPa SE 17mph /  27.4km/h 17mph /  27.4km/h 85% 0in /  0.0mm 28.00 W/m2
05:35 49.3 °F /  9.6 °C 45.3 °F /  7.4 °C 29.3in /  992.8hPa SSW 8.9mph /  14.3km/h 13mph /  20.9km/h 86% 0in /  0.0mm 39.00 W/m2
05:40 49.3 °F /  9.6 °C 45.3 °F /  7.4 °C 29.3in /  992.8hPa South 14.1mph /  22.7km/h 14mph /  22.5km/h 86% 0in /  0.0mm 26.00 W/m2
05:45 49.5 °F /  9.7 °C 45.7 °F /  7.6 °C 29.3in /  992.4hPa South 6.9mph /  11.1km/h 17mph /  27.4km/h 87% 0in /  0.0mm 39.00 W/m2
05:50 49.5 °F /  9.7 °C 46 °F /  7.8 °C 29.3in /  992.4hPa SE 12.1mph /  19.5km/h 17mph /  27.4km/h 88% 0in /  0.0mm 35.00 W/m2
05:55 49.5 °F /  9.7 °C 46 °F /  7.8 °C 29.3in /  992.4hPa South 2.9mph /  4.7km/h 17mph /  27.4km/h 88% 0in /  0.0mm 58.00 W/m2
06:00 49.6 °F /  9.8 °C 46.6 °F /  8.1 °C 29.3in /  992.4hPa South 10.1mph /  16.3km/h 20mph /  32.2km/h 89% 0in /  0.0mm 54.00 W/m2
06:05 49.6 °F /  9.8 °C 46.6 °F /  8.1 °C 29.3in /  992.1hPa SSE 8.1mph /  13.0km/h 21mph /  33.8km/h 89% 0in /  0.0mm 74.00 W/m2
06:10 49.8 °F /  9.9 °C 46.9 °F /  8.3 °C 29.3in /  991.8hPa SSE 8.1mph /  13.0km/h 17mph /  27.4km/h 90% 0in /  0.0mm 95.00 W/m2
06:15 50.2 °F /  10.1 °C 47.3 °F /  8.5 °C 29.3in /  991.8hPa SSW 21.9mph /  35.2km/h 23mph /  37.0km/h 90% 0in /  0.0mm 118.00 W/m2
06:20 50.4 °F /  10.2 °C 47.5 °F /  8.6 °C 29.3in /  991.8hPa SSE 12.1mph /  19.5km/h 22mph /  35.4km/h 90% 0.01in /  0.3mm 86.00 W/m2
06:25 50.4 °F /  10.2 °C 47.5 °F /  8.6 °C 29.3in /  991.8hPa South 14.1mph /  22.7km/h 20mph /  32.2km/h 90% 0.01in /  0.3mm 37.00 W/m2
06:30 50.4 °F /  10.2 °C 47.5 °F /  8.6 °C 29.3in /  991.4hPa SSW 6.9mph /  11.1km/h 19mph /  30.6km/h 90% 0.01in /  0.3mm 39.00 W/m2
06:35 50.4 °F /  10.2 °C 47.8 °F /  8.8 °C 29.3in /  991.4hPa SSE 4mph /  6.4km/h 23mph /  37.0km/h 91% 0.01in /  0.3mm 37.00 W/m2
06:40 50.4 °F /  10.2 °C 47.8 °F /  8.8 °C 29.3in /  991.1hPa South 21mph /  33.8km/h 25mph /  40.2km/h 91% 0.01in /  0.3mm 72.00 W/m2
06:45 50.4 °F /  10.2 °C 47.8 °F /  8.8 °C 29.3in /  990.7hPa South 6mph /  9.7km/h 17mph /  27.4km/h 91% 0.01in /  0.3mm 81.00 W/m2
06:50 50.4 °F /  10.2 °C 47.8 °F /  8.8 °C 29.3in /  990.7hPa SW 2mph /  3.2km/h 21mph /  33.8km/h 91% 0.01in /  0.3mm 67.00 W/m2
06:55 50.5 °F /  10.3 °C 48 °F /  8.9 °C 29.3in /  990.7hPa WSW 6.9mph /  11.1km/h 14mph /  22.5km/h 91% 0.01in /  0.3mm 60.00 W/m2
07:00 50.7 °F /  10.4 °C 48.6 °F /  9.2 °C 29.3in /  990.7hPa SW 10.1mph /  16.3km/h 18mph /  29.0km/h 92% 0.01in /  0.3mm 83.00 W/m2
07:05 50.9 °F /  10.5 °C 48.7 °F /  9.3 °C 29.2in /  990.4hPa South 15mph /  24.1km/h 20mph /  32.2km/h 92% 0.01in /  0.3mm 51.00 W/m2
07:10 51.6 °F /  10.9 °C 49.5 °F /  9.7 °C 29.3in /  990.7hPa South 17mph /  27.4km/h 21mph /  33.8km/h 92% 0.01in /  0.3mm 81.00 W/m2
07:15 51.8 °F /  11.0 °C 49.6 °F /  9.8 °C 29.2in /  990.1hPa South 10.1mph /  16.3km/h 20mph /  32.2km/h 92% 0.01in /  0.3mm 63.00 W/m2
07:20 52.2 °F /  11.2 °C 49.8 °F /  9.9 °C 29.2in /  989.7hPa South 24mph /  38.6km/h 24mph /  38.6km/h 92% 0in /  0.0mm 54.00 W/m2
07:25 52.5 °F /  11.4 °C 50.2 °F /  10.1 °C 29.2in /  989.7hPa SSW 11mph /  17.7km/h 20mph /  32.2km/h 92% 0in /  0.0mm 28.00 W/m2
07:30 52.9 °F /  11.6 °C 50.5 °F /  10.3 °C 29.2in /  989.7hPa South 14.1mph /  22.7km/h 19mph /  30.6km/h 92% 0in /  0.0mm 33.00 W/m2
07:35 53.4 °F /  11.9 °C 51.1 °F /  10.6 °C 29.2in /  989.7hPa SSW 6.9mph /  11.1km/h 21mph /  33.8km/h 92% 0in /  0.0mm 28.00 W/m2
07:40 53.8 °F /  12.1 °C 51.4 °F /  10.8 °C 29.2in /  989.4hPa South 14.1mph /  22.7km/h 19mph /  30.6km/h 92% 0in /  0.0mm 49.00 W/m2
07:45 54.1 °F /  12.3 °C 51.8 °F /  11.0 °C 29.2in /  989.4hPa SSW 6mph /  9.7km/h 22mph /  35.4km/h 92% 0.01in /  0.3mm 40.00 W/m2
07:50 54.7 °F /  12.6 °C 52.3 °F /  11.3 °C 29.2in /  989.4hPa SSW 19.9mph /  32.0km/h 22mph /  35.4km/h 92% 0.01in /  0.3mm 49.00 W/m2
07:55 54.9 °F /  12.7 °C 52.5 °F /  11.4 °C 29.2in /  989.4hPa South 6mph /  9.7km/h 31mph /  49.9km/h 92% 0.01in /  0.3mm 56.00 W/m2
08:00 54.9 °F /  12.7 °C 52.3 °F /  11.3 °C 29.2in /  989.4hPa SSW 11mph /  17.7km/h 12mph /  19.3km/h 91% 0.01in /  0.3mm 60.00 W/m2
08:05 55.2 °F /  12.9 °C 52.9 °F /  11.6 °C 29.2in /  989.4hPa SSW 17.9mph /  28.8km/h 29mph /  46.7km/h 92% 0.01in /  0.3mm 86.00 W/m2
08:10 55.6 °F /  13.1 °C 53.1 °F /  11.7 °C 29.2in /  989.1hPa SW 19mph /  30.6km/h 29mph /  46.7km/h 91% 0.01in /  0.3mm 83.00 W/m2
08:15 55.9 °F /  13.3 °C 53.4 °F /  11.9 °C 29.2in /  989.1hPa SSW 25.1mph /  40.4km/h 26mph /  41.8km/h 91% 0.01in /  0.3mm 84.00 W/m2
08:20 56.3 °F /  13.5 °C 53.4 °F /  11.9 °C 29.2in /  989.1hPa WSW 17mph /  27.4km/h 33mph /  53.1km/h 90% 0.01in /  0.3mm 46.00 W/m2
08:25 56.7 °F /  13.7 °C 53.8 °F /  12.1 °C 29.2in /  989.1hPa SW 15mph /  24.1km/h 22mph /  35.4km/h 90% 0.01in /  0.3mm 74.00 W/m2
08:30 56.7 °F /  13.7 °C 53.4 °F /  11.9 °C 29.2in /  989.1hPa SSW 11mph /  17.7km/h 24mph /  38.6km/h 89% 0.01in /  0.3mm 47.00 W/m2
08:35 56.8 °F /  13.8 °C 53.6 °F /  12.0 °C 29.2in /  989.1hPa SW 13mph /  20.9km/h 22mph /  35.4km/h 89% 0.01in /  0.3mm 39.00 W/m2
08:40 56.8 °F /  13.8 °C 53.6 °F /  12.0 °C 29.2in /  989.1hPa WSW 17mph /  27.4km/h 29mph /  46.7km/h 89% 0.01in /  0.3mm 40.00 W/m2
08:45 56.7 °F /  13.7 °C 53.4 °F /  11.9 °C 29.2in /  989.1hPa SSW 8.9mph /  14.3km/h 18mph /  29.0km/h 89% 0in /  0.0mm 39.00 W/m2
08:50 56.5 °F /  13.6 °C 53.2 °F /  11.8 °C 29.2in /  989.1hPa SW 17.9mph /  28.8km/h 20mph /  32.2km/h 89% 0in /  0.0mm 51.00 W/m2
08:55 56.7 °F /  13.7 °C 53.8 °F /  12.1 °C 29.2in /  989.1hPa SSW 13mph /  20.9km/h 29mph /  46.7km/h 90% 0in /  0.0mm 30.00 W/m2
09:00 56.7 °F /  13.7 °C 53.4 °F /  11.9 °C 29.2in /  988.7hPa SSW 16.1mph /  25.9km/h 28mph /  45.1km/h 89% 0in /  0.0mm 40.00 W/m2
09:05 56.8 °F /  13.8 °C 53.6 °F /  12.0 °C 29.2in /  989.1hPa SSE 8.1mph /  13.0km/h 29mph /  46.7km/h 89% 0in /  0.0mm 44.00 W/m2
09:10 57 °F /  13.9 °C 53.4 °F /  11.9 °C 29.2in /  989.1hPa WSW 8.9mph /  14.3km/h 20mph /  32.2km/h 88% 0in /  0.0mm 25.00 W/m2
09:15 56.8 °F /  13.8 °C 53.2 °F /  11.8 °C 29.2in /  989.1hPa SW 21mph /  33.8km/h 28mph /  45.1km/h 88% 0in /  0.0mm 23.00 W/m2
09:20 57 °F /  13.9 °C 53.4 °F /  11.9 °C 29.2in /  989.1hPa SSW 8.1mph /  13.0km/h 22mph /  35.4km/h 88% 0in /  0.0mm 18.00 W/m2
09:25 57 °F /  13.9 °C 53.4 °F /  11.9 °C 29.2in /  989.1hPa WSW 8.9mph /  14.3km/h 20mph /  32.2km/h 88% 0in /  0.0mm 28.00 W/m2
09:30 57 °F /  13.9 °C 53.4 °F /  11.9 °C 29.2in /  989.1hPa SSW 8.9mph /  14.3km/h 24mph /  38.6km/h 88% 0in /  0.0mm 25.00 W/m2
09:35 57 °F /  13.9 °C 53.4 °F /  11.9 °C 29.2in /  989.1hPa WSW 17mph /  27.4km/h 25mph /  40.2km/h 88% 0in /  0.0mm 21.00 W/m2
09:40 57 °F /  13.9 °C 53.4 °F /  11.9 °C 29.2in /  989.1hPa SSW 14.1mph /  22.7km/h 20mph /  32.2km/h 88% 0in /  0.0mm 26.00 W/m2
09:45 57.4 °F /  14.1 °C 53.8 °F /  12.1 °C 29.2in /  989.4hPa SW 19.9mph /  32.0km/h 32mph /  51.5km/h 88% 0in /  0.0mm 18.00 W/m2
09:50 57.4 °F /  14.1 °C 53.6 °F /  12.0 °C 29.2in /  989.1hPa WSW 4.9mph /  7.9km/h 25mph /  40.2km/h 87% 0in /  0.0mm 9.00 W/m2
09:55 57.2 °F /  14.0 °C 53.6 °F /  12.0 °C 29.2in /  989.1hPa SW 23mph /  37.0km/h 34mph /  54.7km/h 88% 0in /  0.0mm 12.00 W/m2
10:00 57.2 °F /  14.0 °C 53.6 °F /  12.0 °C 29.2in /  989.4hPa WSW 16.1mph /  25.9km/h 20mph /  32.2km/h 88% 0in /  0.0mm 16.00 W/m2
10:05 56.8 °F /  13.8 °C 53.2 °F /  11.8 °C 29.2in /  989.4hPa SW 14.1mph /  22.7km/h 27mph /  43.4km/h 88% 0in /  0.0mm 12.00 W/m2
10:10 56.7 °F /  13.7 °C 53.4 °F /  11.9 °C 29.2in /  989.4hPa SW 15mph /  24.1km/h 24mph /  38.6km/h 89% 0.01in /  0.3mm 16.00 W/m2
10:15 56.5 °F /  13.6 °C 53.2 °F /  11.8 °C 29.2in /  989.4hPa SW 10.1mph /  16.3km/h 24mph /  38.6km/h 89% 0.01in /  0.3mm 11.00 W/m2
10:20 56.1 °F /  13.4 °C 53.2 °F /  11.8 °C 29.2in /  989.4hPa West 17mph /  27.4km/h 24mph /  38.6km/h 90% 0.02in /  0.5mm 12.00 W/m2
10:26 55.9 °F /  13.3 °C 53.4 °F /  11.9 °C 29.2in /  989.4hPa SW 16.1mph /  25.9km/h 25mph /  40.2km/h 91% 0.02in /  0.5mm 11.00 W/m2
10:30 56.1 °F /  13.4 °C 53.6 °F /  12.0 °C 29.2in /  989.4hPa WSW 11mph /  17.7km/h 31mph /  49.9km/h 91% 0.02in /  0.5mm 7.00 W/m2
10:35 56.1 °F /  13.4 °C 53.6 °F /  12.0 °C 29.2in /  989.4hPa South 6.9mph /  11.1km/h 27mph /  43.4km/h 91% 0.02in /  0.5mm 9.00 W/m2
10:40 56.1 °F /  13.4 °C 53.6 °F /  12.0 °C 29.2in /  989.4hPa SW 4mph /  6.4km/h 20mph /  32.2km/h 91% 0.02in /  0.5mm 5.00 W/m2
10:45 56.1 °F /  13.4 °C 53.6 °F /  12.0 °C 29.2in /  989.4hPa SW 13mph /  20.9km/h 26mph /  41.8km/h 91% 0.02in /  0.5mm 0.00 W/m2
10:50 56.1 °F /  13.4 °C 53.6 °F /  12.0 °C 29.2in /  989.4hPa WSW 16.1mph /  25.9km/h 22mph /  35.4km/h 91% 0.02in /  0.5mm 5.00 W/m2
10:55 56.5 °F /  13.6 °C 53.6 °F /  12.0 °C 29.2in /  989.4hPa South 10.1mph /  16.3km/h 31mph /  49.9km/h 90% 0.02in /  0.5mm 0.00 W/m2
11:00 56.3 °F /  13.5 °C 53.4 °F /  11.9 °C 29.2in /  989.1hPa South 8.9mph /  14.3km/h 22mph /  35.4km/h 90% 0.03in /  0.8mm 5.00 W/m2
11:05 56.3 °F /  13.5 °C 53.4 °F /  11.9 °C 29.2in /  989.4hPa SW 8.1mph /  13.0km/h 18mph /  29.0km/h 90% 0.03in /  0.8mm 0.00 W/m2
11:10 56.3 °F /  13.5 °C 53.4 °F /  11.9 °C 29.2in /  989.4hPa SW 8.9mph /  14.3km/h 26mph /  41.8km/h 90% 0.02in /  0.5mm 0.00 W/m2
11:15 56.5 °F /  13.6 °C 53.2 °F /  11.8 °C 29.2in /  989.4hPa SSW 6.9mph /  11.1km/h 14mph /  22.5km/h 89% 0.02in /  0.5mm 0.00 W/m2
11:20 56.5 °F /  13.6 °C 53.2 °F /  11.8 °C 29.2in /  989.4hPa SSE 8.1mph /  13.0km/h 30mph /  48.3km/h 89% 0.02in /  0.5mm 0.00 W/m2
11:25 56.1 °F /  13.4 °C 52.9 °F /  11.6 °C 29.2in /  989.7hPa SW 19mph /  30.6km/h 21mph /  33.8km/h 89% 0.02in /  0.5mm 0.00 W/m2
11:30 55.9 °F /  13.3 °C 53.1 °F /  11.7 °C 29.2in /  989.7hPa West 10.1mph /  16.3km/h 15mph /  24.1km/h 90% 0.02in /  0.5mm 0.00 W/m2
11:35 55.8 °F /  13.2 °C 53.2 °F /  11.8 °C 29.2in /  989.7hPa SW 8.9mph /  14.3km/h 18mph /  29.0km/h 91% 0.03in /  0.8mm 0.00 W/m2
11:40 55.8 °F /  13.2 °C 53.2 °F /  11.8 °C 29.2in /  990.1hPa SW 11mph /  17.7km/h 20mph /  32.2km/h 91% 0.03in /  0.8mm 0.00 W/m2
11:45 55.6 °F /  13.1 °C 53.1 °F /  11.7 °C 29.2in /  989.7hPa West 13mph /  20.9km/h 24mph /  38.6km/h 91% 0.05in /  1.3mm 0.00 W/m2
11:50 55.6 °F /  13.1 °C 53.2 °F /  11.8 °C 29.2in /  989.7hPa SSW 6mph /  9.7km/h 16mph /  25.7km/h 92% 0.06in /  1.5mm 0.00 W/m2
11:55 55.6 °F /  13.1 °C 53.2 °F /  11.8 °C 29.2in /  989.7hPa SW 19mph /  30.6km/h 26mph /  41.8km/h 92% 0.06in /  1.5mm 0.00 W/m2
12:00 55.4 °F /  13.0 °C 53.1 °F /  11.7 °C 29.2in /  990.1hPa WSW 13mph /  20.9km/h 26mph /  41.8km/h 92% 0.06in /  1.5mm 0.00 W/m2
12:06 55.4 °F /  13.0 °C 53.1 °F /  11.7 °C 29.2in /  990.1hPa SW 10.1mph /  16.3km/h 17mph /  27.4km/h 92% 0.07in /  1.8mm 0.00 W/m2
12:10 55.4 °F /  13.0 °C 53.1 °F /  11.7 °C 29.2in /  990.4hPa WSW 17.9mph /  28.8km/h 25mph /  40.2km/h 92% 0.08in /  2.0mm 0.00 W/m2
12:15 55.2 °F /  12.9 °C 52.9 °F /  11.6 °C 29.2in /  990.1hPa WSW 8.9mph /  14.3km/h 18mph /  29.0km/h 92% 0.09in /  2.3mm 0.00 W/m2
12:20 55.2 °F /  12.9 °C 52.9 °F /  11.6 °C 29.2in /  990.1hPa SSW 21mph /  33.8km/h 23mph /  37.0km/h 92% 0.09in /  2.3mm 0.00 W/m2
12:25 55.4 °F /  13.0 °C 53.1 °F /  11.7 °C 29.2in /  989.7hPa SW 15mph /  24.1km/h 23mph /  37.0km/h 92% 0.09in /  2.3mm 0.00 W/m2
12:30 55.6 °F /  13.1 °C 53.2 °F /  11.8 °C 29.2in /  990.1hPa WSW 16.1mph /  25.9km/h 22mph /  35.4km/h 92% 0.09in /  2.3mm 0.00 W/m2
12:35 55.6 °F /  13.1 °C 53.1 °F /  11.7 °C 29.2in /  990.1hPa SW 10.1mph /  16.3km/h 16mph /  25.7km/h 91% 0.08in /  2.0mm 0.00 W/m2
12:40 55.6 °F /  13.1 °C 53.1 °F /  11.7 °C 29.2in /  990.4hPa WSW 13mph /  20.9km/h 21mph /  33.8km/h 91% 0.07in /  1.8mm 0.00 W/m2
12:45 55.6 °F /  13.1 °C 53.1 °F /  11.7 °C 29.2in /  990.4hPa SW 10.1mph /  16.3km/h 14mph /  22.5km/h 91% 0.06in /  1.5mm 0.00 W/m2
12:50 55.2 °F /  12.9 °C 52.7 °F /  11.5 °C 29.3in /  990.7hPa West 17mph /  27.4km/h 23mph /  37.0km/h 91% 0.06in /  1.5mm 0.00 W/m2
12:55 55 °F /  12.8 °C 52.7 °F /  11.5 °C 29.3in /  990.7hPa West 4.9mph /  7.9km/h 11mph /  17.7km/h 92% 0.11in /  2.8mm 0.00 W/m2
13:00 54.5 °F /  12.5 °C 52.2 °F /  11.2 °C 29.3in /  990.7hPa West 12.1mph /  19.5km/h 14mph /  22.5km/h 92% 0.13in /  3.3mm 0.00 W/m2
13:05 54.3 °F /  12.4 °C 52 °F /  11.1 °C 29.3in /  991.1hPa WSW 14.1mph /  22.7km/h 14mph /  22.5km/h 92% 0.13in /  3.3mm 0.00 W/m2
13:10 54.5 °F /  12.5 °C 52.2 °F /  11.2 °C 29.3in /  991.1hPa WSW 13mph /  20.9km/h 15mph /  24.1km/h 92% 0.13in /  3.3mm 0.00 W/m2
13:15 54.5 °F /  12.5 °C 52.2 °F /  11.2 °C 29.3in /  991.1hPa West 10.1mph /  16.3km/h 10mph /  16.1km/h 92% 0.14in /  3.6mm 0.00 W/m2
13:20 54.3 °F /  12.4 °C 52 °F /  11.1 °C 29.3in /  991.1hPa WSW 8.1mph /  13.0km/h 12mph /  19.3km/h 92% 0.14in /  3.6mm 0.00 W/m2
13:25 54.1 °F /  12.3 °C 52.2 °F /  11.2 °C 29.3in /  991.1hPa SW 6.9mph /  11.1km/h 15mph /  24.1km/h 93% 0.14in /  3.6mm 0.00 W/m2
13:30 54 °F /  12.2 °C 52 °F /  11.1 °C 29.3in /  991.1hPa SW 14.1mph /  22.7km/h 23mph /  37.0km/h 93% 0.14in /  3.6mm 0.00 W/m2
13:35 53.8 °F /  12.1 °C 51.8 °F /  11.0 °C 29.3in /  991.4hPa SW 6mph /  9.7km/h 16mph /  25.7km/h 93% 0.14in /  3.6mm 0.00 W/m2
13:40 53.6 °F /  12.0 °C 51.6 °F /  10.9 °C 29.3in /  991.4hPa WSW 16.1mph /  25.9km/h 20mph /  32.2km/h 93% 0.15in /  3.8mm 0.00 W/m2
13:45 53.4 °F /  11.9 °C 51.4 °F /  10.8 °C 29.3in /  991.8hPa SSW 13mph /  20.9km/h 20mph /  32.2km/h 93% 0.16in /  4.1mm 0.00 W/m2
13:50 53.2 °F /  11.8 °C 51.3 °F /  10.7 °C 29.3in /  991.8hPa WSW 17mph /  27.4km/h 18mph /  29.0km/h 93% 0.15in /  3.8mm 0.00 W/m2
13:55 53.1 °F /  11.7 °C 51.1 °F /  10.6 °C 29.3in /  991.4hPa WSW 13mph /  20.9km/h 14mph /  22.5km/h 93% 0.11in /  2.8mm 0.00 W/m2
14:00 53.1 °F /  11.7 °C 51.1 °F /  10.6 °C 29.3in /  991.8hPa WSW 8.1mph /  13.0km/h 17mph /  27.4km/h 93% 0.08in /  2.0mm 0.00 W/m2
14:05 53.1 °F /  11.7 °C 51.1 °F /  10.6 °C 29.3in /  991.8hPa WSW 8.1mph /  13.0km/h 12mph /  19.3km/h 93% 0.06in /  1.5mm 0.00 W/m2
14:10 53.1 °F /  11.7 °C 51.1 °F /  10.6 °C 29.3in /  992.1hPa WSW 2.9mph /  4.7km/h 12mph /  19.3km/h 93% 0.06in /  1.5mm 0.00 W/m2
14:15 53.1 °F /  11.7 °C 51.1 °F /  10.6 °C 29.3in /  991.8hPa SW 8.9mph /  14.3km/h 13mph /  20.9km/h 93% 0.05in /  1.3mm 0.00 W/m2
14:20 53.1 °F /  11.7 °C 51.1 °F /  10.6 °C 29.3in /  992.1hPa SW 6mph /  9.7km/h 11mph /  17.7km/h 93% 0.04in /  1.0mm 0.00 W/m2
14:25 53.1 °F /  11.7 °C 51.1 °F /  10.6 °C 29.3in /  992.4hPa SW 4.9mph /  7.9km/h 14mph /  22.5km/h 93% 0.05in /  1.3mm 0.00 W/m2
14:31 53.1 °F /  11.7 °C 50.7 °F /  10.4 °C 29.3in /  992.4hPa WSW 4.9mph /  7.9km/h 11mph /  17.7km/h 92% 0.05in /  1.3mm 0.00 W/m2
14:35 53.1 °F /  11.7 °C 50.7 °F /  10.4 °C 29.3in /  992.4hPa SW 8.9mph /  14.3km/h 14mph /  22.5km/h 92% 0.05in /  1.3mm 0.00 W/m2
14:40 53.1 °F /  11.7 °C 50.7 °F /  10.4 °C 29.3in /  992.4hPa WSW 4mph /  6.4km/h 12mph /  19.3km/h 92% 0.05in /  1.3mm 0.00 W/m2
14:45 53.1 °F /  11.7 °C 50.7 °F /  10.4 °C 29.3in /  992.4hPa SE 4mph /  6.4km/h 13mph /  20.9km/h 92% 0.04in /  1.0mm 0.00 W/m2
14:50 52.9 °F /  11.6 °C 50.5 °F /  10.3 °C 29.3in /  992.4hPa South 2.9mph /  4.7km/h 13mph /  20.9km/h 92% 0.02in /  0.5mm 0.00 W/m2
14:55 53.1 °F /  11.7 °C 50.7 °F /  10.4 °C 29.3in /  992.4hPa SSW 8.9mph /  14.3km/h 13mph /  20.9km/h 92% 0.02in /  0.5mm 0.00 W/m2
15:00 53.1 °F /  11.7 °C 50.7 °F /  10.4 °C 29.3in /  992.4hPa WSW 8.9mph /  14.3km/h 9mph /  14.5km/h 92% 0.02in /  0.5mm 0.00 W/m2
15:05 53.1 °F /  11.7 °C 50.7 °F /  10.4 °C 29.3in /  992.8hPa SSW 12.1mph /  19.5km/h 12mph /  19.3km/h 92% 0.02in /  0.5mm 0.00 W/m2
15:10 53.1 °F /  11.7 °C 50.7 °F /  10.4 °C 29.3in /  992.8hPa South 4.9mph /  7.9km/h 12mph /  19.3km/h 92% 0.02in /  0.5mm 0.00 W/m2
15:15 52.9 °F /  11.6 °C 50.5 °F /  10.3 °C 29.3in /  992.4hPa SW 6.9mph /  11.1km/h 7mph /  11.3km/h 92% 0.02in /  0.5mm 0.00 W/m2
15:20 52.9 °F /  11.6 °C 50.5 °F /  10.3 °C 29.3in /  992.4hPa WSW 8.1mph /  13.0km/h 11mph /  17.7km/h 92% 0.02in /  0.5mm 0.00 W/m2
15:25 52.9 °F /  11.6 °C 50.5 °F /  10.3 °C 29.3in /  992.8hPa WSW 8.1mph /  13.0km/h 15mph /  24.1km/h 92% 0.02in /  0.5mm 0.00 W/m2
15:30 52.9 °F /  11.6 °C 50.4 °F /  10.2 °C 29.3in /  992.8hPa WSW 12.1mph /  19.5km/h 14mph /  22.5km/h 91% 0.02in /  0.5mm 0.00 W/m2
15:35 52.9 °F /  11.6 °C 50.5 °F /  10.3 °C 29.3in /  992.8hPa South 4.9mph /  7.9km/h 11mph /  17.7km/h 92% 0.02in /  0.5mm 0.00 W/m2
15:40 52.9 °F /  11.6 °C 50.5 °F /  10.3 °C 29.3in /  992.8hPa SSW 6.9mph /  11.1km/h 10mph /  16.1km/h 92% 0.02in /  0.5mm 0.00 W/m2
15:45 52.9 °F /  11.6 °C 50.5 °F /  10.3 °C 29.3in /  993.1hPa WSW 10.1mph /  16.3km/h 13mph /  20.9km/h 92% 0.02in /  0.5mm 0.00 W/m2
15:50 52.7 °F /  11.5 °C 50.2 °F /  10.1 °C 29.3in /  993.1hPa SW 8.1mph /  13.0km/h 12mph /  19.3km/h 91% 0.02in /  0.5mm 0.00 W/m2
15:55 52.7 °F /  11.5 °C 50.2 °F /  10.1 °C 29.3in /  993.1hPa SW 14.1mph /  22.7km/h 20mph /  32.2km/h 91% 0.02in /  0.5mm 0.00 W/m2
16:00 52.7 °F /  11.5 °C 50.2 °F /  10.1 °C 29.3in /  993.5hPa SW 4mph /  6.4km/h 13mph /  20.9km/h 91% 0.03in /  0.8mm 0.00 W/m2
16:05 52.5 °F /  11.4 °C 50 °F /  10.0 °C 29.3in /  993.5hPa SW 6.9mph /  11.1km/h 11mph /  17.7km/h 91% 0.03in /  0.8mm 0.00 W/m2
16:10 52.5 °F /  11.4 °C 50 °F /  10.0 °C 29.3in /  993.5hPa WSW 8.1mph /  13.0km/h 17mph /  27.4km/h 91% 0.04in /  1.0mm 0.00 W/m2
16:15 52.3 °F /  11.3 °C 50 °F /  10.0 °C 29.3in /  993.5hPa WSW 6.9mph /  11.1km/h 13mph /  20.9km/h 92% 0.03in /  0.8mm 0.00 W/m2
16:20 52.3 °F /  11.3 °C 50 °F /  10.0 °C 29.3in /  993.5hPa SW 4.9mph /  7.9km/h 12mph /  19.3km/h 92% 0.04in /  1.0mm 0.00 W/m2
16:25 52.3 °F /  11.3 °C 50 °F /  10.0 °C 29.3in /  993.5hPa West 6.9mph /  11.1km/h 7mph /  11.3km/h 92% 0.04in /  1.0mm 0.00 W/m2
16:30 51.3 °F /  10.7 °C 49.1 °F /  9.5 °C 29.4in /  993.8hPa WNW 6.9mph /  11.1km/h 8mph /  12.9km/h 92% 0.04in /  1.0mm 0.00 W/m2
16:35 50.5 °F /  10.3 °C 48.4 °F /  9.1 °C 29.4in /  993.8hPa NW 4.9mph /  7.9km/h 10mph /  16.1km/h 92% 0.07in /  1.8mm 0.00 W/m2
16:40 50.2 °F /  10.1 °C 48 °F /  8.9 °C 29.4in /  993.8hPa NW 4mph /  6.4km/h 10mph /  16.1km/h 92% 0.11in /  2.8mm 0.00 W/m2
16:45 49.8 °F /  9.9 °C 47.8 °F /  8.8 °C 29.4in /  994.1hPa NW 4.9mph /  7.9km/h 9mph /  14.5km/h 93% 0.12in /  3.0mm 0.00 W/m2
16:50 49.8 °F /  9.9 °C 47.8 °F /  8.8 °C 29.4in /  994.1hPa NW 4.9mph /  7.9km/h 8mph /  12.9km/h 93% 0.13in /  3.3mm 0.00 W/m2
16:55 49.6 °F /  9.8 °C 47.7 °F /  8.7 °C 29.4in /  994.1hPa West 6.9mph /  11.1km/h 8mph /  12.9km/h 93% 0.13in /  3.3mm 0.00 W/m2
17:00 49.5 °F /  9.7 °C 47.5 °F /  8.6 °C 29.4in /  994.1hPa WNW 2mph /  3.2km/h 7mph /  11.3km/h 93% 0.13in /  3.3mm 0.00 W/m2
17:05 49.5 °F /  9.7 °C 47.8 °F /  8.8 °C 29.4in /  994.1hPa WNW 6.9mph /  11.1km/h 8mph /  12.9km/h 94% 0.13in /  3.3mm 0.00 W/m2
17:10 49.3 °F /  9.6 °C 47.7 °F /  8.7 °C 29.4in /  994.1hPa NW 4.9mph /  7.9km/h 9mph /  14.5km/h 94% 0.13in /  3.3mm 0.00 W/m2
17:15 49.1 °F /  9.5 °C 47.5 °F /  8.6 °C 29.4in /  994.1hPa West 2.9mph /  4.7km/h 8mph /  12.9km/h 94% 0.13in /  3.3mm 0.00 W/m2
17:20 48.7 °F /  9.3 °C 47.1 °F /  8.4 °C 29.4in /  994.1hPa West 2.9mph /  4.7km/h 8mph /  12.9km/h 94% 0.13in /  3.3mm 0.00 W/m2
17:25 48.6 °F /  9.2 °C 46.9 °F /  8.3 °C 29.4in /  994.1hPa WNW 2mph /  3.2km/h 6mph /  9.7km/h 94% 0.14in /  3.6mm 0.00 W/m2
17:30 48.4 °F /  9.1 °C 46.8 °F /  8.2 °C 29.4in /  994.1hPa WNW 2.9mph /  4.7km/h 6mph /  9.7km/h 94% 0.14in /  3.6mm 0.00 W/m2
17:35 48 °F /  8.9 °C 46.4 °F /  8.0 °C 29.4in /  994.1hPa WNW 8.1mph /  13.0km/h 10mph /  16.1km/h 94% 0.1in /  2.5mm 0.00 W/m2
17:40 48 °F /  8.9 °C 46.4 °F /  8.0 °C 29.4in /  994.1hPa NW 6.9mph /  11.1km/h 8mph /  12.9km/h 94% 0.06in /  1.5mm 0.00 W/m2
17:45 47.8 °F /  8.8 °C 46.2 °F /  7.9 °C 29.4in /  994.1hPa NW 2.9mph /  4.7km/h 8mph /  12.9km/h 94% 0.06in /  1.5mm 0.00 W/m2
17:50 47.8 °F /  8.8 °C 46.2 °F /  7.9 °C 29.4in /  994.1hPa WNW 4mph /  6.4km/h 8mph /  12.9km/h 94% 0.06in /  1.5mm 0.00 W/m2
17:55 47.7 °F /  8.7 °C 46 °F /  7.8 °C 29.4in /  994.5hPa WNW 4.9mph /  7.9km/h 10mph /  16.1km/h 94% 0.05in /  1.3mm 0.00 W/m2
18:00 47.7 °F /  8.7 °C 46.2 °F /  7.9 °C 29.4in /  994.5hPa West 4.9mph /  7.9km/h 6mph /  9.7km/h 95% 0.06in /  1.5mm 0.00 W/m2
18:05 47.5 °F /  8.6 °C 46 °F /  7.8 °C 29.4in /  994.5hPa WNW 2mph /  3.2km/h 6mph /  9.7km/h 95% 0.05in /  1.3mm 0.00 W/m2
18:10 47.5 °F /  8.6 °C 45.9 °F /  7.7 °C 29.4in /  994.5hPa West 0.9mph /  1.4km/h 4mph /  6.4km/h 94% 0.05in /  1.3mm 0.00 W/m2
18:15 47.5 °F /  8.6 °C 45.9 °F /  7.7 °C 29.4in /  994.5hPa NW 2.9mph /  4.7km/h 5mph /  8.0km/h 94% 0.04in /  1.0mm 0.00 W/m2
18:20 47.5 °F /  8.6 °C 46 °F /  7.8 °C 29.4in /  994.5hPa WNW 2mph /  3.2km/h 5mph /  8.0km/h 95% 0.04in /  1.0mm 0.00 W/m2
18:25 47.5 °F /  8.6 °C 46 °F /  7.8 °C 29.4in /  994.5hPa WNW 2.9mph /  4.7km/h 3mph /  4.8km/h 95% 0.04in /  1.0mm 0.00 W/m2
18:30 47.5 °F /  8.6 °C 46 °F /  7.8 °C 29.4in /  994.5hPa West 2mph /  3.2km/h 5mph /  8.0km/h 95% 0.03in /  0.8mm 0.00 W/m2
18:35 47.5 °F /  8.6 °C 46 °F /  7.8 °C 29.4in /  994.5hPa WNW 2.9mph /  4.7km/h 4mph /  6.4km/h 95% 0.03in /  0.8mm 0.00 W/m2
18:40 47.5 °F /  8.6 °C 46 °F /  7.8 °C 29.4in /  994.8hPa NW 2.9mph /  4.7km/h 6mph /  9.7km/h 95% 0.04in /  1.0mm 0.00 W/m2
18:45 47.1 °F /  8.4 °C 45.7 °F /  7.6 °C 29.4in /  994.8hPa NW 6mph /  9.7km/h 12mph /  19.3km/h 95% 0.03in /  0.8mm 0.00 W/m2
18:50 46.8 °F /  8.2 °C 45.3 °F /  7.4 °C 29.4in /  994.8hPa NW 4.9mph /  7.9km/h 8mph /  12.9km/h 95% 0.03in /  0.8mm 0.00 W/m2
18:55 46.4 °F /  8.0 °C 45 °F /  7.2 °C 29.4in /  995.1hPa WNW 6.9mph /  11.1km/h 9mph /  14.5km/h 95% 0.04in /  1.0mm 0.00 W/m2
19:00 46.2 °F /  7.9 °C 44.8 °F /  7.1 °C 29.4in /  995.1hPa WNW 6mph /  9.7km/h 11mph /  17.7km/h 95% 0.04in /  1.0mm 0.00 W/m2
19:05 46.2 °F /  7.9 °C 44.8 °F /  7.1 °C 29.4in /  995.5hPa NW 6.9mph /  11.1km/h 11mph /  17.7km/h 95% 0.05in /  1.3mm 0.00 W/m2
19:10 45.7 °F /  7.6 °C 44.4 °F /  6.9 °C 29.4in /  995.5hPa NW 4.9mph /  7.9km/h 10mph /  16.1km/h 95% 0.06in /  1.5mm 0.00 W/m2
19:16 45.7 °F /  7.6 °C 44.4 °F /  6.9 °C 29.4in /  995.8hPa NNW 4mph /  6.4km/h 8mph /  12.9km/h 95% 0.06in /  1.5mm 0.00 W/m2
19:20 45.7 °F /  7.6 °C 44.4 °F /  6.9 °C 29.4in /  995.5hPa WNW 2mph /  3.2km/h 7mph /  11.3km/h 95% 0.06in /  1.5mm 0.00 W/m2
19:25 45.7 °F /  7.6 °C 44.4 °F /  6.9 °C 29.4in /  995.5hPa West 2.9mph /  4.7km/h 4mph /  6.4km/h 95% 0.06in /  1.5mm 0.00 W/m2
19:30 45.7 °F /  7.6 °C 44.4 °F /  6.9 °C 29.4in /  995.8hPa NW 2mph /  3.2km/h 6mph /  9.7km/h 95% 0.06in /  1.5mm 0.00 W/m2
19:35 45.7 °F /  7.6 °C 44.4 °F /  6.9 °C 29.4in /  995.8hPa West 2mph /  3.2km/h 5mph /  8.0km/h 95% 0.06in /  1.5mm 0.00 W/m2
19:40 45.7 °F /  7.6 °C 44.4 °F /  6.9 °C 29.4in /  995.8hPa NW 4mph /  6.4km/h 6mph /  9.7km/h 95% 0.06in /  1.5mm 0.00 W/m2
19:45 45.7 °F /  7.6 °C 44.4 °F /  6.9 °C 29.4in /  995.8hPa West 4.9mph /  7.9km/h 7mph /  11.3km/h 95% 0.06in /  1.5mm 0.00 W/m2
19:50 45.5 °F /  7.5 °C 44.2 °F /  6.8 °C 29.4in /  996.2hPa West 2mph /  3.2km/h 8mph /  12.9km/h 95% 0.06in /  1.5mm 0.00 W/m2
19:55 45.3 °F /  7.4 °C 44.1 °F /  6.7 °C 29.4in /  996.2hPa WNW 4.9mph /  7.9km/h 11mph /  17.7km/h 95% 0.06in /  1.5mm 0.00 W/m2
20:00 45.3 °F /  7.4 °C 44.1 °F /  6.7 °C 29.4in /  996.2hPa WNW 4mph /  6.4km/h 7mph /  11.3km/h 95% 0.05in /  1.3mm 0.00 W/m2
20:05 45.3 °F /  7.4 °C 44.1 °F /  6.7 °C 29.4in /  996.2hPa West 6mph /  9.7km/h 7mph /  11.3km/h 95% 0.04in /  1.0mm 0.00 W/m2
20:10 45.3 °F /  7.4 °C 44.1 °F /  6.7 °C 29.4in /  996.5hPa West 4.9mph /  7.9km/h 7mph /  11.3km/h 95% 0.03in /  0.8mm 0.00 W/m2
20:15 45.3 °F /  7.4 °C 44.1 °F /  6.7 °C 29.4in /  996.8hPa West 4mph /  6.4km/h 7mph /  11.3km/h 95% 0.02in /  0.5mm 0.00 W/m2
20:20 45.3 °F /  7.4 °C 44.1 °F /  6.7 °C 29.4in /  996.8hPa West 2.9mph /  4.7km/h 7mph /  11.3km/h 95% 0.02in /  0.5mm 0.00 W/m2
20:25 45.3 °F /  7.4 °C 44.1 °F /  6.7 °C 29.4in /  996.8hPa West 6mph /  9.7km/h 8mph /  12.9km/h 95% 0.01in /  0.3mm 0.00 W/m2
20:30 45.1 °F /  7.3 °C 43.9 °F /  6.6 °C 29.5in /  997.2hPa WNW 6mph /  9.7km/h 12mph /  19.3km/h 95% 0.02in /  0.5mm 0.00 W/m2
20:35 44.8 °F /  7.1 °C 43.5 °F /  6.4 °C 29.5in /  997.2hPa WNW 6mph /  9.7km/h 11mph /  17.7km/h 95% 0.02in /  0.5mm 0.00 W/m2
20:40 44.8 °F /  7.1 °C 43.5 °F /  6.4 °C 29.5in /  997.2hPa NW 4.9mph /  7.9km/h 7mph /  11.3km/h 95% 0.02in /  0.5mm 0.00 W/m2
20:45 44.6 °F /  7.0 °C 43.3 °F /  6.3 °C 29.5in /  997.2hPa West 6mph /  9.7km/h 9mph /  14.5km/h 95% 0.02in /  0.5mm 0.00 W/m2
20:50 44.6 °F /  7.0 °C 43.3 °F /  6.3 °C 29.5in /  997.5hPa West 4.9mph /  7.9km/h 9mph /  14.5km/h 95% 0.02in /  0.5mm 0.00 W/m2
20:55 44.6 °F /  7.0 °C 43.3 °F /  6.3 °C 29.5in /  997.2hPa West 2.9mph /  4.7km/h 5mph /  8.0km/h 95% 0.01in /  0.3mm 0.00 W/m2
21:00 44.6 °F /  7.0 °C 43.3 °F /  6.3 °C 29.5in /  997.5hPa WNW 4.9mph /  7.9km/h 9mph /  14.5km/h 95% 0.01in /  0.3mm 0.00 W/m2
21:05 44.6 °F /  7.0 °C 43.3 °F /  6.3 °C 29.5in /  997.9hPa NW 2.9mph /  4.7km/h 5mph /  8.0km/h 95% 0.01in /  0.3mm 0.00 W/m2
21:10 44.6 °F /  7.0 °C 43.3 °F /  6.3 °C 29.5in /  997.9hPa WNW 4mph /  6.4km/h 5mph /  8.0km/h 95% 0.02in /  0.5mm 0.00 W/m2
21:15 44.6 °F /  7.0 °C 43.3 °F /  6.3 °C 29.5in /  997.9hPa WNW 0.9mph /  1.4km/h 4mph /  6.4km/h 95% 0.02in /  0.5mm 0.00 W/m2
21:20 44.6 °F /  7.0 °C 43.3 °F /  6.3 °C 29.5in /  997.9hPa WNW 4.9mph /  7.9km/h 7mph /  11.3km/h 95% 0.02in /  0.5mm 0.00 W/m2
21:25 44.6 °F /  7.0 °C 43.3 °F /  6.3 °C 29.5in /  997.9hPa West 6.9mph /  11.1km/h 8mph /  12.9km/h 95% 0.02in /  0.5mm 0.00 W/m2
21:30 44.6 °F /  7.0 °C 43.3 °F /  6.3 °C 29.5in /  997.9hPa WNW 2mph /  3.2km/h 7mph /  11.3km/h 95% 0.01in /  0.3mm 0.00 W/m2
21:35 44.8 °F /  7.1 °C 43.2 °F /  6.2 °C 29.5in /  998.2hPa West 2.9mph /  4.7km/h 5mph /  8.0km/h 94% 0.01in /  0.3mm 0.00 W/m2
21:41 44.6 °F /  7.0 °C 43 °F /  6.1 °C 29.5in /  998.2hPa WNW 4.9mph /  7.9km/h 7mph /  11.3km/h 94% 0.01in /  0.3mm 0.00 W/m2
21:45 44.8 °F /  7.1 °C 43.2 °F /  6.2 °C 29.5in /  998.2hPa WNW 2.9mph /  4.7km/h 6mph /  9.7km/h 94% 0.01in /  0.3mm 0.00 W/m2
21:50 44.8 °F /  7.1 °C 43.5 °F /  6.4 °C 29.5in /  998.2hPa West 4mph /  6.4km/h 9mph /  14.5km/h 95% 0.01in /  0.3mm 0.00 W/m2
21:55 44.8 °F /  7.1 °C 43.2 °F /  6.2 °C 29.5in /  998.2hPa WNW 0.9mph /  1.4km/h 6mph /  9.7km/h 94% 0.01in /  0.3mm 0.00 W/m2
22:00 44.8 °F /  7.1 °C 43.2 °F /  6.2 °C 29.5in /  998.5hPa WNW 2mph /  3.2km/h 7mph /  11.3km/h 94% 0.01in /  0.3mm 0.00 W/m2
22:05 44.8 °F /  7.1 °C 43.2 °F /  6.2 °C 29.5in /  998.5hPa West 6mph /  9.7km/h 7mph /  11.3km/h 94% 0.01in /  0.3mm 0.00 W/m2
22:10 44.8 °F /  7.1 °C 43.2 °F /  6.2 °C 29.5in /  998.5hPa West 0.9mph /  1.4km/h 4mph /  6.4km/h 94% 0in /  0.0mm 0.00 W/m2
22:15 44.8 °F /  7.1 °C 43.2 °F /  6.2 °C 29.5in /  998.2hPa NW 0.9mph /  1.4km/h 3mph /  4.8km/h 94% 0in /  0.0mm 0.00 W/m2
22:20 44.8 °F /  7.1 °C 43.2 °F /  6.2 °C 29.5in /  998.5hPa WNW 0.9mph /  1.4km/h 4mph /  6.4km/h 94% 0in /  0.0mm 0.00 W/m2
22:25 44.8 °F /  7.1 °C 43.2 °F /  6.2 °C 29.5in /  998.5hPa WNW 2.9mph /  4.7km/h 5mph /  8.0km/h 94% 0in /  0.0mm 0.00 W/m2
22:30 44.6 °F /  7.0 °C 43 °F /  6.1 °C 29.5in /  998.2hPa West 0.9mph /  1.4km/h 3mph /  4.8km/h 94% 0in /  0.0mm 0.00 W/m2
22:35 44.8 °F /  7.1 °C 43.2 °F /  6.2 °C 29.5in /  998.2hPa West 0.9mph /  1.4km/h 3mph /  4.8km/h 94% 0in /  0.0mm 0.00 W/m2
22:40 44.6 °F /  7.0 °C 43 °F /  6.1 °C 29.5in /  998.2hPa Calm   1mph /  1.6km/h 94% 0in /  0.0mm 0.00 W/m2
22:45 44.6 °F /  7.0 °C 43 °F /  6.1 °C 29.5in /  998.2hPa Calm     94% 0in /  0.0mm 0.00 W/m2
22:50 44.6 °F /  7.0 °C 43 °F /  6.1 °C 29.5in /  998.2hPa West 0.9mph /  1.4km/h 1mph /  1.6km/h 94% 0in /  0.0mm 0.00 W/m2
22:55 44.6 °F /  7.0 °C 43 °F /  6.1 °C 29.5in /  998.2hPa Calm   2mph /  3.2km/h 94% 0in /  0.0mm 0.00 W/m2
23:00 44.4 °F /  6.9 °C 42.8 °F /  6.0 °C 29.5in /  998.2hPa Calm   2mph /  3.2km/h 94% 0in /  0.0mm 0.00 W/m2
23:05 44.6 °F /  7.0 °C 43 °F /  6.1 °C 29.5in /  998.5hPa Calm   1mph /  1.6km/h 94% 0in /  0.0mm 0.00 W/m2
23:10 44.4 °F /  6.9 °C 42.8 °F /  6.0 °C 29.5in /  998.5hPa West 2mph /  3.2km/h 3mph /  4.8km/h 94% 0in /  0.0mm 0.00 W/m2
23:15 44.4 °F /  6.9 °C 42.8 °F /  6.0 °C 29.5in /  998.9hPa Calm   2mph /  3.2km/h 94% 0in /  0.0mm 0.00 W/m2
23:20 44.4 °F /  6.9 °C 42.8 °F /  6.0 °C 29.5in /  998.9hPa Calm   3mph /  4.8km/h 94% 0in /  0.0mm 0.00 W/m2
23:25 44.4 °F /  6.9 °C 42.8 °F /  6.0 °C 29.5in /  998.9hPa Calm     94% 0in /  0.0mm 0.00 W/m2
23:30 44.4 °F /  6.9 °C 42.8 °F /  6.0 °C 29.5in /  998.9hPa WSW 2mph /  3.2km/h 3mph /  4.8km/h 94% 0in /  0.0mm 0.00 W/m2
23:35 44.6 °F /  7.0 °C 43 °F /  6.1 °C 29.5in /  999.2hPa WNW 2mph /  3.2km/h 5mph /  8.0km/h 94% 0in /  0.0mm 0.00 W/m2
23:40 44.6 °F /  7.0 °C 43 °F /  6.1 °C 29.5in /  998.9hPa WNW 0.9mph /  1.4km/h 2mph /  3.2km/h 94% 0in /  0.0mm 0.00 W/m2
23:45 44.6 °F /  7.0 °C 43 °F /  6.1 °C 29.5in /  999.2hPa SW 0.9mph /  1.4km/h 4mph /  6.4km/h 94% 0in /  0.0mm 0.00 W/m2
23:50 44.6 °F /  7.0 °C 43 °F /  6.1 °C 29.5in /  999.2hPa West 2mph /  3.2km/h 4mph /  6.4km/h 94% 0in /  0.0mm 0.00 W/m2
23:55 44.6 °F /  7.0 °C 43 °F /  6.1 °C 29.5in /  999.2hPa SW 0.9mph /  1.4km/h 3mph /  4.8km/h 94% 0in /  0.0mm 0.00 W/m2